Date,TemperatureHighF,TemperatureAvgF,TemperatureLowF,DewpointHighF,DewpointAvgF,DewpointLowF,HumidityHigh,HumidityAvg,HumidityLow,PressureMaxIn,PressureMinIn,WindSpeedMaxMPH,WindSpeedAvgMPH,GustSpeedMaxMPH,PrecipitationSumIn
2013-1-1,47,42,38,42,37,28,88,81,69,29.06,28.91,6,0,9,1.18
2013-1-2,45,39,36,41,34,30,89,83,77,29.12,28.94,4,0,6,0.04
2013-1-3,43,36,29,34,28,21,78,72,60,29.32,29.12,5,0,5,0.59
2013-1-4,42,31,24,31,21,17,79,67,49,29.38,29.29,5,0,5,0.00
2013-1-5,46,34,23,32,23,15,76,65,53,29.35,29.18,6,0,6,0.08
2013-1-6,47,41,34,41,34,25,82,76,69,29.26,29.09,6,0,8,0.04
2013-1-7,48,36,27,32,25,18,77,64,47,29.35,29.23,8,0,8,0.00
2013-1-8,53,38,26,35,25,17,75,61,46,29.35,29.23,5,0,6,0.00
2013-1-9,51,44,35,43,36,24,78,72,61,29.41,29.26,5,0,6,0.00
2013-1-10,63,54,47,52,46,42,85,76,65,29.41,29.12,6,0,8,0.00
2013-1-11,69,65,60,60,54,49,79,69,61,29.09,29.00,12,2,16,0.00
2013-1-12,75,66,56,66,58,48,85,76,63,29.09,28.94,7,0,8,0.00
2013-1-13,71,64,54,56,52,47,80,67,51,29.00,28.88,13,2,13,0.83
2013-1-14,61,45,38,55,41,35,90,86,80,29.26,29.00,7,0,8,2.05
2013-1-15,45,42,40,43,40,37,95,93,90,29.15,28.94,6,0,6,2.28
2013-1-16,49,44,42,48,43,41,96,95,94,29.03,28.85,4,0,8,0.66
2013-1-17,43,38,31,42,36,30,97,95,94,29.29,28.85,13,2,13,0.84
2013-1-18,41,33,27,39,30,25,96,91,85,29.47,29.29,4,0,5,0.32
2013-1-19,48,36,28,43,31,25,91,83,67,29.38,29.12,7,0,8,0.04
2013-1-20,54,42,33,41,31,24,73,66,52,29.15,29.06,8,1,8,0.28
2013-1-21,46,35,29,31,21,11,80,59,39,29.18,29.03,10,1,10,0.00
2013-1-22,36,29,23,14,10,7,52,44,36,29.29,29.15,8,1,8,0.00
2013-1-23,46,34,25,22,15,8,51,44,39,29.32,29.06,9,1,9,0.00
2013-1-24,42,35,27,28,14,2,56,41,30,29.35,29.09,9,2,10,0.28
2013-1-25,34,31,27,27,16,2,75,57,34,29.29,29.03,4,0,5,0.00
2013-1-26,48,38,31,36,28,21,82,70,52,29.32,29.12,4,0,4,0.04
2013-1-27,48,37,27,35,27,19,77,66,54,29.38,29.26,4,0,6,0.28
2013-1-28,60,49,39,46,40,32,78,69,56,29.32,29.18,7,0,8,0.00
2013-1-29,68,56,44,55,46,37,82,70,55,29.18,28.82,6,0,10,0.00
2013-1-30,68,58,42,57,50,37,86,75,62,28.82,28.47,13,4,22,2.35
2013-1-31,44,37,33,37,27,23,83,67,52,29.03,28.67,15,3,15,0.00
2013-2-1,40,30,21,27,14,7,69,52,42,29.35,28.94,10,1,17,0.28
2013-2-2,37,29,22,30,19,10,75,64,54,29.32,29.03,7,1,10,0.00
2013-2-3,44,37,28,36,27,15,80,67,49,29.12,28.94,10,1,10,0.04
2013-2-4,48,36,25,31,23,15,73,60,50,29.09,28.91,5,0,6,0.00
2013-2-5,60,47,41,41,32,25,67,55,45,28.97,28.88,8,1,9,0.04
2013-2-6,61,45,33,40,30,24,77,57,35,29.15,28.97,7,0,7,0.00
2013-2-7,52,45,39,37,30,24,70,57,46,29.09,28.88,5,0,5,0.00
2013-2-8,57,46,38,49,35,24,83,67,46,29.23,28.85,10,1,10,0.16
2013-2-9,55,42,31,28,21,17,62,46,28,29.29,29.18,10,1,10,0.00
2013-2-10,62,46,37,41,29,18,77,52,31,29.18,28.91,10,1,10,0.20
2013-2-11,58,50,42,53,43,32,84,75,61,29.09,28.91,10,1,12,0.00
2013-2-12,54,45,36,33,28,24,75,53,36,29.12,28.79,9,1,10,0.28
2013-2-13,49,43,38,42,35,30,79,72,56,28.94,28.64,9,1,10,0.24
2013-2-14,55,43,37,39,32,24,78,65,47,29.03,28.94,7,1,8,0.00
2013-2-15,59,42,32,41,30,23,75,62,44,29.06,28.94,10,1,10,0.08
2013-2-16,40,33,27,26,19,11,73,57,40,29.09,28.94,10,1,11,0.00
2013-2-17,44,31,21,20,12,7,57,46,33,29.21,29.09,10,1,10,0.00
2013-2-18,62,42,24,34,20,9,57,43,31,29.23,28.91,13,3,15,0.00
2013-2-19,53,45,34,42,26,13,73,49,32,29.15,28.85,13,3,15,0.20
2013-2-20,46,35,26,22,14,9,54,43,34,29.18,29.12,8,0,8,0.00
2013-2-21,54,39,27,28,16,8,61,40,27,29.18,28.91,13,1,13,0.48
2013-2-22,58,48,40,48,39,28,79,71,61,29.03,28.94,8,0,8,0.12
2013-2-23,56,49,44,49,42,38,83,78,73,28.97,28.79,5,0,5,0.12
2013-2-24,56,43,32,38,28,18,83,60,34,29.03,28.88,5,0,6,0.00
2013-2-25,57,43,32,30,24,18,59,48,35,29.00,28.73,7,1,8,0.00
2013-2-26,60,50,43,50,38,28,82,65,45,28.73,28.38,15,2,15,0.32
2013-2-27,52,43,39,35,31,27,71,62,48,28.82,28.64,11,2,12,0.00
2013-2-28,41,38,35,28,24,20,68,58,50,28.94,28.76,9,1,9,0.00
2013-3-1,45,38,36,33,27,22,70,63,55,28.94,28.88,8,0,8,0.04
2013-3-2,41,35,31,34,26,15,77,68,52,29.00,28.88,7,0,8,0.24
2013-3-3,40,32,27,19,14,11,57,48,40,29.03,29.00,8,0,8,0.00
2013-3-4,52,37,21,25,17,9,64,47,33,29.12,28.91,4,0,6,0.00
2013-3-5,49,40,34,45,31,18,86,71,44,28.97,28.56,12,1,14,1.51
2013-3-6,35,33,31,29,27,24,81,78,76,29.21,28.82,8,0,9,0.00
2013-3-7,42,36,33,28,25,20,80,65,51,29.29,29.15,8,1,8,0.00
2013-3-8,54,40,29,27,21,17,67,49,30,29.35,29.23,10,2,11,0.00
2013-3-9,65,46,31,36,26,16,61,46,32,29.26,29.12,6,0,6,0.00
2013-3-10,75,56,40,40,32,25,66,42,24,29.12,28.91,13,2,13,0.00
2013-3-11,67,59,46,47,41,27,79,54,30,28.94,28.67,15,6,19,0.91
2013-3-12,54,44,39,40,35,28,80,69,51,29.06,28.79,6,0,7,0.04
2013-3-13,47,38,32,31,23,13,76,57,38,29.26,29.03,10,2,10,0.00
2013-3-14,49,37,27,24,16,10,50,43,34,29.35,29.18,8,1,8,0.00
2013-3-15,70,51,33,41,30,18,60,45,33,29.21,28.85,9,1,10,0.00
2013-3-16,79,66,58,46,39,35,44,38,31,28.85,28.73,16,3,16,0.00
2013-3-17,78,66,57,48,40,34,47,40,32,28.91,28.79,9,1,9,0.00
2013-3-18,69,58,52,49,44,34,81,60,44,28.85,28.67,9,1,10,0.64
2013-3-19,59,49,39,48,33,15,84,59,27,29.09,28.76,9,2,10,0.12
2013-3-20,59,45,34,27,20,15,51,38,26,29.09,28.82,12,1,12,0.00
2013-3-21,46,34,26,18,11,6,44,37,29,28.97,28.88,7,1,10,0.00
2013-3-22,50,38,27,24,15,7,46,39,32,29.03,28.94,5,0,5,0.00
2013-3-23,57,47,40,38,30,19,65,51,38,28.97,28.70,9,1,10,0.00
2013-3-24,60,50,41,52,42,33,82,75,55,28.73,28.32,10,1,15,0.72
2013-3-25,43,36,34,33,26,21,73,65,52,28.97,28.53,13,4,14,0.00
2013-3-26,45,37,33,30,24,19,73,59,43,29.23,28.97,8,1,9,0.60
2013-3-27,54,41,32,29,22,16,66,49,31,29.29,29.21,8,1,10,0.00
2013-3-28,59,42,28,30,20,14,60,42,27,29.29,29.18,8,1,8,0.00
2013-3-29,52,41,31,36,26,15,75,55,40,29.32,29.18,4,0,5,0.20
2013-3-30,65,52,43,51,41,36,83,69,48,29.21,28.94,7,0,7,0.60
2013-3-31,64,57,52,57,50,42,85,80,70,28.97,28.79,10,1,10,0.56
2013-4-1,66,53,44,54,42,29,88,68,40,29.03,28.85,8,1,10,0.00
2013-4-2,58,47,35,30,24,19,62,43,27,29.18,29.03,7,1,8,0.00
2013-4-3,60,49,37,25,19,13,39,31,25,29.21,29.12,13,2,13,0.00
2013-4-4,50,45,41,37,28,16,79,57,28,29.12,28.94,8,1,8,0.99
2013-4-5,63,49,39,44,36,30,84,64,35,29.03,28.91,9,0,9,0.00
2013-4-6,72,54,36,42,34,26,73,49,30,29.15,29.00,9,1,10,0.00
2013-4-7,78,62,48,45,36,27,51,38,30,29.12,29.00,10,2,10,0.00
2013-4-8,83,65,50,52,43,36,65,47,31,29.06,28.94,12,2,12,0.00
2013-4-9,87,68,52,54,46,40,68,48,30,29.12,28.94,9,1,10,0.00
2013-4-10,88,71,55,56,49,43,68,47,29,29.06,28.82,9,1,9,0.00
2013-4-11,87,72,62,55,50,46,74,47,29,28.85,28.59,14,2,14,0.80
2013-4-12,66,58,50,56,46,34,82,65,40,28.88,28.53,9,1,10,0.24
2013-4-13,71,57,43,43,37,33,74,50,27,29.03,28.88,10,1,10,0.00
2013-4-14,71,57,44,46,39,32,69,52,34,29.00,28.88,8,0,10,0.00
2013-4-15,81,66,55,55,49,45,74,56,36,29.03,28.85,7,0,7,0.24
2013-4-16,86,70,54,59,52,45,76,55,34,29.18,29.03,8,0,8,0.00
2013-4-17,78,68,63,62,55,50,76,65,48,29.18,29.00,9,1,15,0.00
2013-4-18,88,72,59,63,53,45,85,56,28,29.03,28.76,16,3,16,0.00
2013-4-19,74,60,46,56,47,35,80,63,41,29.03,28.61,18,3,23,1.47
2013-4-20,62,49,36,38,32,27,78,55,34,29.23,29.00,7,0,7,0.00
2013-4-21,69,53,39,39,32,28,69,47,27,29.35,29.18,9,1,9,0.00
2013-4-22,73,58,43,42,34,28,61,42,27,29.29,29.09,12,1,12,0.00
2013-4-23,79,60,45,46,40,34,69,49,31,29.18,28.97,7,0,8,0.00
2013-4-24,77,61,49,58,47,40,74,60,40,29.18,28.94,18,2,18,0.20
2013-4-25,68,54,42,42,36,30,76,55,31,29.29,29.18,7,0,8,0.24
2013-4-26,72,56,40,40,34,29,69,46,28,29.35,29.23,8,1,8,0.00
2013-4-27,58,55,53,53,46,34,86,73,43,29.29,29.06,4,0,6,1.07
2013-4-28,59,56,53,57,53,49,94,91,86,29.12,28.88,9,0,9,2.03
2013-4-29,73,61,54,66,56,48,95,83,56,29.00,28.88,4,0,6,0.00
2013-4-30,80,64,50,62,51,44,84,65,40,29.03,28.91,5,0,5,0.00
2013-5-1,80,68,58,58,50,42,79,56,34,29.15,29.03,10,1,10,0.00
2013-5-2,83,67,55,57,50,43,75,55,35,29.15,29.03,8,0,8,0.00
2013-5-3,82,66,56,56,47,40,74,53,32,29.09,28.91,10,1,10,0.00
2013-5-4,65,59,54,51,44,35,83,60,41,28.94,28.82,5,0,6,0.76
2013-5-5,59,56,53,56,52,49,89,87,83,28.85,28.70,6,0,7,1.07
2013-5-6,61,54,47,56,50,44,92,86,76,28.88,28.73,4,0,8,0.24
2013-5-7,70,57,47,57,48,43,89,73,52,28.91,28.82,6,0,6,0.00
2013-5-8,74,63,57,63,55,48,84,76,60,29.03,28.88,9,0,9,0.32
2013-5-9,79,66,53,68,56,49,91,72,45,29.09,28.97,6,0,6,0.00
2013-5-10,75,66,57,64,54,50,81,66,50,29.03,28.88,5,0,10,0.00
2013-5-11,78,67,56,64,56,44,80,67,53,28.94,28.82,8,0,8,0.04
2013-5-12,69,58,49,48,39,27,74,51,31,29.09,28.94,6,0,6,0.00
2013-5-13,69,55,40,39,32,28,66,44,27,29.21,29.09,6,0,8,0.24
2013-5-14,80,62,42,48,40,29,67,47,31,29.18,29.00,9,1,11,0.00
2013-5-15,89,74,65,55,49,46,52,42,29,29.12,28.94,10,1,10,0.00
2013-5-16,86,71,60,59,52,47,69,52,33,29.03,28.91,8,0,8,0.00
2013-5-17,85,73,63,62,56,51,73,58,40,29.06,28.94,8,0,8,0.00
2013-5-18,76,70,65,69,63,57,87,78,66,29.03,28.94,3,0,6,0.76
2013-5-19,78,68,63,74,65,60,92,89,87,29.03,28.94,8,0,9,0.44
2013-5-20,84,71,62,74,64,60,93,79,56,29.09,28.94,5,0,5,0.00
2013-5-21,89,74,64,73,62,53,86,70,41,29.00,28.85,10,0,10,0.04
2013-5-22,88,72,63,71,61,55,85,69,44,28.94,28.79,10,0,10,0.00
2013-5-23,84,72,66,64,57,47,79,60,42,28.97,28.85,7,0,8,0.04
2013-5-24,72,64,54,51,44,32,71,48,29,29.23,28.97,9,1,9,0.00
2013-5-25,78,62,47,45,38,33,69,45,24,29.29,29.12,8,1,8,0.00
2013-5-26,79,65,56,56,46,39,71,51,31,29.26,29.15,4,0,5,0.08
2013-5-27,88,70,56,58,51,45,73,52,31,29.18,29.06,6,0,7,0.00
2013-5-28,90,76,64,62,54,49,69,49,31,29.15,29.03,8,1,10,0.00
2013-5-29,91,77,64,60,55,49,68,47,31,29.18,29.03,8,0,8,0.00
2013-5-30,93,76,63,62,54,50,71,49,28,29.18,29.03,7,0,7,0.00
2013-5-31,94,78,64,63,55,51,72,48,27,29.12,29.00,10,1,10,0.00
2013-6-1,95,80,69,62,56,52,72,46,27,29.03,28.91,10,2,10,0.36
2013-6-2,80,71,66,75,66,61,92,83,72,28.97,28.82,6,0,8,3.06
2013-6-3,81,72,66,70,63,54,90,73,52,28.97,28.85,4,0,6,0.00
2013-6-4,85,72,60,62,56,53,81,60,37,29.00,28.94,6,0,8,0.00
2013-6-5,89,72,65,69,61,56,82,69,45,29.00,28.88,5,0,6,0.20
2013-6-6,85,74,66,72,64,61,88,73,53,28.91,28.70,4,0,6,0.00
2013-6-7,85,74,69,71,64,61,85,73,50,28.82,28.67,6,0,6,0.28
2013-6-8,84,73,66,69,62,56,87,70,46,29.03,28.82,5,0,8,0.00
2013-6-9,88,73,65,68,63,58,85,73,46,29.06,28.94,6,0,11,0.28
2013-6-10,81,73,68,72,65,60,90,77,57,28.97,28.85,10,1,10,0.64
2013-6-11,85,75,66,73,64,59,90,71,45,29.00,28.88,7,0,7,0.00
2013-6-12,94,80,69,74,67,62,82,65,42,29.03,28.88,6,0,7,0.00
2013-6-13,88,78,71,76,68,63,78,71,56,28.91,28.70,13,1,13,0.28
2013-6-14,84,72,61,63,54,47,83,58,31,29.00,28.82,10,1,10,0.00
2013-6-15,88,73,60,61,56,51,76,56,35,29.09,29.00,6,0,6,0.00
2013-6-16,91,77,65,66,60,56,75,57,37,29.09,28.94,6,0,8,0.00
2013-6-17,82,75,69,76,68,63,89,80,66,29.03,28.88,4,0,6,1.23
2013-6-18,78,71,66,75,67,63,92,87,81,28.94,28.82,10,0,10,0.72
2013-6-19,84,72,63,70,61,51,94,72,37,29.03,28.91,9,1,9,0.00
2013-6-20,88,75,64,69,61,56,84,65,37,29.18,29.03,9,0,9,0.00
2013-6-21,86,76,69,68,63,59,81,66,49,29.21,29.12,6,0,7,0.00
2013-6-22,89,76,65,67,59,50,82,59,31,29.21,29.06,10,0,10,0.00
2013-6-23,90,77,67,67,61,56,80,60,32,29.18,29.06,7,0,8,0.00
2013-6-24,92,79,69,70,64,58,81,61,38,29.18,29.03,5,0,8,0.00
2013-6-25,89,78,70,71,65,62,78,66,48,29.15,29.00,6,0,6,0.00
2013-6-26,91,76,69,75,67,62,82,74,54,29.03,28.85,9,0,10,0.24
2013-6-27,85,76,68,78,70,63,92,84,76,28.88,28.76,9,1,10,1.47
2013-6-28,87,76,69,78,70,66,93,84,63,28.82,28.61,7,0,8,0.12
2013-6-29,85,74,68,74,66,58,92,76,51,28.67,28.61,7,0,8,0.16
2013-6-30,88,75,66,68,60,53,84,62,35,28.76,28.64,6,0,8,0.00
2013-7-1,85,72,66,69,63,56,81,72,54,28.88,28.73,9,0,9,0.40
2013-7-2,82,72,67,74,66,62,90,81,71,29.03,28.85,7,0,7,0.12
2013-7-3,74,70,68,70,66,64,92,87,81,29.15,29.03,5,0,6,0.68
2013-7-4,79,71,66,76,68,64,95,90,81,29.15,29.06,6,0,6,0.36
2013-7-5,82,74,70,77,70,67,95,88,79,29.15,29.06,7,0,8,0.04
2013-7-6,81,72,68,76,69,64,93,88,72,29.12,29.06,4,0,6,0.80
2013-7-7,72,69,67,70,68,65,96,95,92,29.15,29.06,6,0,6,1.87
2013-7-8,85,74,68,80,70,64,97,87,56,29.18,29.06,6,0,6,0.00
2013-7-9,90,78,69,78,69,65,90,77,55,29.15,29.03,5,0,7,0.00
2013-7-10,92,78,72,77,69,65,86,75,52,29.06,28.88,9,0,9,0.00
2013-7-11,87,76,70,74,68,64,86,75,58,28.94,28.85,5,0,6,0.00
2013-7-12,86,75,68,69,62,54,85,66,43,28.94,28.88,10,1,10,0.00
2013-7-13,90,76,68,67,62,56,76,64,40,29.03,28.91,7,0,7,0.00
2013-7-14,89,76,69,74,66,63,86,72,47,29.18,29.03,10,0,10,0.04
2013-7-15,91,78,68,69,63,58,83,64,38,29.26,29.18,8,0,8,0.00
2013-7-16,94,81,70,70,63,59,80,58,35,29.32,29.21,6,1,8,0.00
2013-7-17,96,81,71,72,65,58,79,61,36,29.26,29.12,10,1,14,0.08
2013-7-18,93,79,69,73,66,62,84,67,41,29.23,29.03,8,0,8,0.00
2013-7-19,94,81,72,74,67,63,83,64,41,29.09,28.94,6,0,6,0.00
2013-7-20,92,80,70,73,67,61,78,65,46,29.00,28.88,10,0,15,0.44
2013-7-21,86,75,69,79,70,61,91,83,77,29.00,28.91,10,0,15,0.20
2013-7-22,86,75,70,74,68,64,90,79,55,28.97,28.79,12,1,12,0.16
2013-7-23,86,76,70,74,68,64,88,76,57,28.91,28.79,14,1,14,0.00
2013-7-24,87,77,72,74,68,61,85,73,57,28.88,28.79,6,0,6,0.00
2013-7-25,88,76,67,68,60,53,80,60,38,29.03,28.85,6,0,6,0.00
2013-7-26,90,72,64,68,61,55,85,69,43,29.06,28.94,6,0,12,1.11
2013-7-27,80,72,67,76,67,64,91,86,80,28.97,28.85,0,0,4,0.04
2013-7-28,82,74,68,71,65,58,90,75,53,29.03,28.88,5,0,6,0.00
2013-7-29,85,70,60,60,55,49,81,61,31,29.18,29.03,10,0,10,0.00
2013-7-30,83,71,60,62,57,53,79,63,43,29.21,29.12,0,0,0,0.00
2013-7-31,81,73,67,71,65,59,85,76,70,29.12,28.94,3,0,4,0.16
2013-8-1,84,76,71,76,67,61,89,74,54,28.97,28.91,4,0,5,0.24
2013-8-2,88,76,66,68,62,56,84,64,39,29.03,28.94,6,0,6,0.00
2013-8-3,87,77,69,69,64,60,81,67,50,29.03,28.97,5,0,9,0.00
2013-8-4,87,78,70,72,62,50,82,61,32,29.09,29.00,8,0,9,0.00
2013-8-5,90,75,64,64,58,52,76,57,31,29.09,28.97,4,0,8,0.00
2013-8-6,88,78,70,67,64,58,76,62,45,29.03,28.94,5,0,6,0.00
2013-8-7,85,77,72,78,70,66,87,79,71,29.06,28.94,5,0,8,0.56
2013-8-8,84,76,71,76,70,66,87,81,72,29.06,29.00,9,0,9,0.12
2013-8-9,90,78,70,79,70,66,89,77,56,29.09,29.00,6,0,6,0.00
2013-8-10,94,78,72,76,69,64,86,74,47,29.15,29.06,6,0,8,0.04
2013-8-11,90,77,71,78,70,64,88,78,55,29.21,29.09,5,0,9,0.04
2013-8-12,88,76,70,76,69,65,87,78,63,29.18,29.03,8,0,8,0.04
2013-8-13,87,77,72,75,69,65,88,76,53,29.06,28.94,6,0,10,0.08
2013-8-14,80,72,66,65,57,48,80,60,37,29.12,29.00,13,2,13,0.00
2013-8-15,84,71,62,61,55,49,65,57,41,29.15,29.06,8,0,8,0.00
2013-8-16,81,73,67,66,61,57,77,66,50,29.15,29.09,4,0,5,0.00
2013-8-17,76,71,67,65,60,57,81,71,54,29.21,29.12,5,0,7,0.36
2013-8-18,81,71,67,72,65,61,89,80,67,29.23,29.15,10,0,10,0.32
2013-8-19,79,72,68,71,66,63,91,82,69,29.21,29.12,5,0,5,0.12
2013-8-20,86,74,68,71,66,63,89,76,54,29.23,29.15,8,0,8,0.04
2013-8-21,82,74,70,72,67,64,88,79,70,29.26,29.18,5,0,6,0.00
2013-8-22,88,77,68,75,67,63,89,72,47,29.23,29.09,5,0,5,0.00
2013-8-23,88,75,69,73,66,60,84,74,47,29.15,29.06,9,0,14,0.04
2013-8-24,86,74,67,72,62,51,90,70,32,29.29,29.12,8,1,9,0.04
2013-8-25,86,73,64,66,58,51,81,62,36,29.44,29.26,7,0,8,0.00
2013-8-26,86,73,62,65,58,54,80,62,39,29.91,29.32,5,0,5,0.00
2013-8-27,87,75,65,69,61,57,80,65,42,30.80,29.23,6,0,6,0.00
2013-8-28,92,78,68,72,64,61,81,65,41,31.01,29.68,5,0,6,0.00
2013-8-29,90,79,73,73,67,63,79,68,51,31.01,30.71,8,0,8,0.00
2013-8-30,93,80,72,76,68,64,85,69,41,31.01,31.01,6,0,6,0.00
2013-8-31,91,80,73,80,70,63,88,72,51,31.01,31.01,5,0,7,0.24
2013-9-1,89,78,71,74,67,63,84,70,52,31.01,25.19,10,0,10,0.00
2013-9-2,89,77,69,72,66,62,84,71,48,31.01,20.11,6,0,8,0.00
2013-9-3,84,74,66,76,67,60,93,79,62,27.55,20.11,15,0,15,2.07
2013-9-4,85,72,63,71,62,58,88,73,48,20.23,17.72,5,0,6,0.00
2013-9-5,84,72,63,69,59,52,85,66,40,17.72,17.72,6,0,7,0.00
2013-9-6,87,72,62,64,57,53,83,61,34,17.72,17.72,6,0,8,0.00
2013-9-7,88,73,62,69,60,55,81,65,42,17.72,17.72,6,0,7,0.00
2013-9-8,89,75,66,71,63,59,81,67,41,17.72,17.72,4,0,5,0.00
2013-9-9,92,76,66,72,63,60,84,66,39,17.72,17.72,6,0,6,0.00
2013-9-10,92,77,67,70,63,59,82,64,34,17.72,17.72,7,0,8,0.00
2013-9-11,87,75,67,77,68,64,92,78,57,17.72,17.72,4,0,5,0.76
2013-9-12,86,74,69,76,67,63,87,79,68,17.72,17.72,7,0,7,0.40
2013-9-13,79,69,59,68,58,43,91,69,38,17.72,17.72,9,0,9,0.00
2013-9-14,77,64,53,51,47,44,74,56,35,17.72,17.72,10,1,10,0.00
2013-9-15,85,68,55,63,54,48,79,64,40,17.72,17.72,6,0,6,0.00
2013-9-16,85,71,62,66,57,52,81,62,36,17.72,17.72,6,0,8,0.00
2013-9-17,81,71,64,62,58,54,72,63,48,17.72,17.72,7,0,7,0.00
2013-9-18,76,69,65,64,60,58,80,72,58,17.72,17.72,4,0,5,0.00
2013-9-19,85,71,63,67,60,56,83,69,45,17.72,17.72,8,0,8,0.00
2013-9-20,87,73,63,67,60,56,81,65,40,17.72,17.72,8,0,8,0.00
2013-9-21,70,67,64,66,62,59,90,84,70,17.72,17.72,3,0,4,2.07
2013-9-22,75,64,56,62,54,48,93,74,44,17.72,17.72,8,1,9,0.04
2013-9-23,80,64,54,64,54,48,83,71,48,17.72,17.72,6,0,6,0.00
2013-9-24,81,68,58,63,58,52,85,71,42,17.72,17.72,6,0,8,0.00
2013-9-25,71,67,66,68,63,58,91,86,74,17.72,17.72,3,0,4,0.60
2013-9-26,77,68,62,70,62,54,93,81,58,17.72,17.72,7,0,7,0.04
2013-9-27,79,65,56,66,55,50,87,72,46,17.72,17.72,4,0,6,0.00
2013-9-28,78,65,58,63,55,51,84,70,46,17.72,17.72,8,0,8,0.00
2013-9-29,72,66,62,60,57,53,82,73,60,17.72,17.72,3,0,4,0.00
2013-9-30,80,66,56,63,55,51,85,70,45,17.72,17.72,4,0,5,0.00
2013-10-1,81,67,58,65,56,51,82,69,46,17.72,17.72,6,0,6,0.00
2013-10-2,82,69,60,66,57,53,83,69,43,17.72,17.72,5,0,5,0.00
2013-10-3,84,71,64,67,60,56,84,69,47,17.72,17.72,6,0,6,0.00
2013-10-4,85,70,60,66,58,54,82,67,43,17.72,17.72,6,0,6,0.00
2013-10-5,87,72,61,68,60,55,81,66,42,17.72,17.72,4,0,7,0.00
2013-10-6,86,72,62,65,57,52,80,61,38,17.72,17.72,10,2,14,0.04
2013-10-7,70,60,54,58,50,41,87,69,43,29.03,17.72,8,0,8,0.32
2013-10-8,73,60,50,49,45,42,77,60,38,29.12,29.03,13,1,13,0.00
2013-10-9,77,62,52,58,49,45,79,64,40,29.18,29.09,6,0,6,0.00
2013-10-10,75,62,53,59,49,45,82,65,38,29.15,29.00,6,0,8,0.00
2013-10-11,58,55,53,47,46,45,74,72,68,29.03,29.00,0,0,0,0.00
2013-10-14,78,72,66,57,55,52,69,55,41,29.09,29.06,4,0,6,0.00
2013-10-15,75,67,61,62,57,54,81,70,56,29.12,29.00,3,0,4,0.00
2013-10-16,73,65,59,61,55,51,81,70,55,29.03,28.91,6,0,6,0.00
2013-10-17,71,64,58,67,58,49,89,81,73,28.97,28.82,4,0,6,0.20
2013-10-18,69,57,49,51,46,40,83,67,43,29.03,28.91,6,0,8,0.00
2013-10-19,67,57,51,54,47,41,81,70,56,28.97,28.88,9,0,12,0.00
2013-10-20,66,51,40,43,37,32,76,59,36,29.06,28.94,8,0,8,0.00
2013-10-21,72,53,38,52,39,30,76,61,40,29.09,28.94,6,0,6,0.00
2013-10-22,67,58,52,52,46,40,78,65,49,28.97,28.82,4,0,4,0.00
2013-10-23,56,50,48,46,38,28,76,63,44,29.09,28.76,10,1,10,0.00
2013-10-24,69,50,44,45,33,29,65,51,38,29.21,29.06,7,0,7,0.00
2013-10-25,54,41,31,32,24,21,73,52,31,29.41,29.21,8,0,10,0.00
2013-10-26,61,44,28,32,26,20,77,53,29,29.32,29.06,8,1,10,0.00
2013-10-27,64,57,50,46,38,28,69,50,38,29.12,29.03,6,0,6,0.00
2013-10-28,68,59,53,53,47,44,80,66,44,29.23,29.09,7,0,9,0.00
2013-10-29,74,60,50,54,48,44,84,65,36,29.29,29.18,6,0,7,0.00
2013-10-30,80,66,57,54,50,46,81,60,32,29.23,29.09,10,1,10,0.00
2013-10-31,74,66,59,54,50,46,77,57,42,29.12,28.61,13,3,17,0.00
2013-11-1,72,64,51,60,51,40,89,64,35,28.79,28.61,16,2,17,0.24
2013-11-2,65,53,45,46,38,31,82,60,34,29.06,28.76,7,1,9,0.00
2013-11-3,61,48,37,40,32,28,81,57,34,29.26,29.03,10,1,10,0.00
2013-11-4,66,49,35,37,33,28,78,57,33,29.38,29.26,6,0,6,0.00
2013-11-5,67,53,43,40,36,34,76,56,33,29.41,29.26,0,0,4,0.00
2013-11-6,76,59,47,47,42,37,72,55,33,29.26,29.03,9,1,9,0.00
2013-11-7,61,52,37,56,42,30,89,69,40,29.23,28.97,5,0,8,0.56
2013-11-8,55,41,32,34,26,21,87,58,28,29.35,29.23,7,1,9,0.00
2013-11-9,57,43,30,33,28,23,77,59,37,29.29,29.18,5,0,6,0.00
2013-11-10,66,49,37,38,33,25,76,55,32,29.26,29.18,6,0,6,0.00
2013-11-11,64,46,32,34,27,23,72,50,26,29.29,29.12,6,0,6,0.00
2013-11-12,50,41,30,36,24,10,62,51,39,29.50,29.09,9,2,11,0.00
2013-11-13,45,33,24,18,13,9,57,44,31,29.59,29.41,8,1,9,0.00
2013-11-14,56,36,23,25,18,13,68,49,26,29.44,29.23,7,0,7,0.00
2013-11-15,49,40,30,37,28,17,80,62,42,29.23,29.12,4,0,5,0.08
2013-11-16,66,52,43,48,43,37,84,72,49,29.18,29.06,3,0,5,0.00
2013-11-17,69,58,48,61,54,43,92,84,55,29.06,28.79,12,1,12,0.56
2013-11-18,64,56,42,61,42,27,93,64,32,29.12,28.79,8,0,9,0.24
2013-11-19,54,44,35,28,24,21,70,45,30,29.18,29.09,10,2,13,0.00
2013-11-20,58,44,32,30,25,21,67,49,30,29.26,29.15,4,0,5,0.00
2013-11-21,63,48,35,38,32,26,74,57,37,29.32,29.21,4,0,5,0.00
2013-11-22,59,54,49,54,47,38,89,78,64,29.26,29.15,0,0,4,0.24
2013-11-23,54,45,33,51,34,14,88,66,38,29.35,29.18,9,1,10,0.00
2013-11-24,38,30,24,14,8,4,52,40,30,29.53,29.35,10,2,10,0.00
2013-11-25,38,32,25,26,12,6,71,45,37,29.41,29.12,6,0,6,0.12
2013-11-26,43,38,34,42,35,26,96,90,72,29.15,28.67,9,0,9,2.19
2013-11-27,38,32,27,36,26,16,93,79,57,29.23,28.76,4,0,5,0.08
2013-11-28,40,30,22,23,18,13,75,61,41,29.44,29.23,5,0,6,0.04
2013-11-29,48,33,23,30,21,18,85,64,37,29.53,29.41,8,0,8,0.00
2013-11-30,51,36,26,31,24,20,84,65,40,29.47,29.23,4,0,5,0.00
2013-12-1,55,41,27,35,28,21,84,62,39,29.26,28.94,7,0,8,0.00
2013-12-2,50,47,45,40,38,33,76,69,60,28.94,28.76,0,0,0,0.00
2013-12-3,58,51,46,49,45,40,91,80,65,28.82,28.76,4,0,4,0.04
2013-12-4,70,58,48,52,48,44,90,71,47,28.91,28.82,10,1,14,0.00
2013-12-5,73,64,55,62,56,49,89,76,60,28.97,28.85,10,1,10,0.00
2013-12-6,66,50,39,63,47,37,95,90,77,29.15,28.85,8,0,8,2.15
2013-12-7,40,38,37,37,34,30,95,86,76,29.35,29.15,10,2,10,0.00
2013-12-8,40,38,36,37,35,30,90,87,76,29.29,29.03,10,0,10,0.72
2013-12-9,43,40,40,40,38,37,91,90,90,29.09,28.97,4,0,6,0.72
2013-12-10,42,37,29,39,33,25,93,86,71,29.32,28.94,7,0,8,0.52
2013-12-11,43,32,24,31,25,19,88,76,52,29.38,29.29,5,0,6,0.00
2013-12-12,37,30,25,24,18,13,81,64,38,29.47,29.32,6,0,6,0.00
2013-12-13,43,32,21,23,19,16,81,60,38,29.35,29.09,5,0,5,0.00
2013-12-14,46,41,37,43,34,22,90,77,52,29.12,28.76,8,0,8,0.52
2013-12-15,46,37,34,44,30,26,93,76,66,29.15,28.79,7,1,8,0.00
2013-12-16,49,38,30,32,28,25,87,68,48,29.18,29.06,7,1,9,0.00
2013-12-17,56,46,38,32,27,24,62,49,40,29.18,28.94,12,2,12,0.00
2013-12-18,49,39,30,26,20,16,71,47,32,29.29,29.18,6,0,7,0.00
2013-12-19,56,37,26,29,22,18,73,56,32,29.26,29.09,4,0,5,0.00
2013-12-20,59,45,32,40,30,24,75,57,36,29.12,29.00,4,0,4,0.00
2013-12-21,71,60,48,55,47,39,73,62,49,29.00,28.76,14,3,15,0.00
2013-12-22,71,60,55,57,54,48,93,83,47,29.00,28.73,14,2,14,1.71
2013-12-23,55,45,34,53,40,23,95,83,62,29.29,28.97,8,0,8,0.20
2013-12-24,35,32,26,24,18,9,68,55,41,29.41,29.29,6,1,8,0.00
2013-12-25,40,29,20,22,16,9,75,61,42,29.41,29.23,5,0,5,0.00
2013-12-26,47,34,26,28,22,20,77,63,40,29.35,29.23,5,0,6,0.00
2013-12-27,49,37,29,29,22,20,79,57,37,29.41,29.29,4,0,4,0.00
2013-12-28,38,33,26,34,25,19,84,73,66,29.35,28.91,5,0,5,0.60
2013-12-29,59,41,38,43,39,34,97,91,46,28.97,28.79,5,0,6,0.76
2013-12-30,42,38,36,42,35,30,97,86,73,29.18,28.97,6,0,8,0.00
2013-12-31,46,35,28,31,27,13,84,73,29,29.38,29.15,6,0,7,0.00
2014-1-1,45,32,23,28,23,18,82,69,45,29.29,29.03,6,0,6,0.00
2014-1-2,38,34,22,36,28,10,90,80,56,29.12,28.73,12,2,13,0.56